createdAt,value
2022-08-18T00:02:39.554Z,2.33
2022-08-18T00:07:47.541Z,2.40
2022-08-18T00:12:50.514Z,2.20
2022-08-18T00:17:53.559Z,2.30
2022-08-18T00:22:57.843Z,2.65
2022-08-18T00:28:00.683Z,2.30
2022-08-18T00:33:03.742Z,2.53
2022-08-18T00:38:09.448Z,2.67
2022-08-18T00:43:32.710Z,2.60
2022-08-18T00:48:35.609Z,2.67
2022-08-18T00:53:45.613Z,3.15
2022-08-18T00:58:52.274Z,2.67
2022-08-18T01:04:00.331Z,2.35
2022-08-18T01:09:04.784Z,2.78
2022-08-18T01:14:11.353Z,3.22
2022-08-18T01:19:32.125Z,2.70
2022-08-18T01:24:54.857Z,2.88
2022-08-18T01:29:58.989Z,2.70
2022-08-18T01:35:01.823Z,2.88
2022-08-18T01:41:22.245Z,3.05
2022-08-18T01:45:33.629Z,3.08
2022-08-18T01:50:39.802Z,2.83
2022-08-18T01:55:45.473Z,2.75
2022-08-18T02:00:48.190Z,2.50
2022-08-18T02:05:53.269Z,2.80
2022-08-18T02:10:58.724Z,3.00
2022-08-18T02:16:02.095Z,2.65
2022-08-18T02:21:10.390Z,2.67
2022-08-18T02:26:17.230Z,3.22
2022-08-18T02:31:24.266Z,3.65
2022-08-18T02:36:27.110Z,4.10
2022-08-18T02:41:31.247Z,3.95
2022-08-18T02:46:34.003Z,4.22
2022-08-18T02:51:36.772Z,3.05
2022-08-18T02:56:42.586Z,3.05
2022-08-18T03:01:47.045Z,3.08
2022-08-18T03:06:49.834Z,2.90
2022-08-18T03:11:54.607Z,3.15
2022-08-18T03:16:58.194Z,3.10
2022-08-18T03:22:02.878Z,3.03
2022-08-18T03:27:08.533Z,2.97
2022-08-18T03:32:11.301Z,3.25
2022-08-18T03:37:15.864Z,3.55
2022-08-18T03:42:19.983Z,3.42
2022-08-18T03:47:22.670Z,3.35
2022-08-18T03:52:25.339Z,3.17
2022-08-18T03:57:33.165Z,4.22
2022-08-18T04:02:41.843Z,3.25
2022-08-18T04:07:44.536Z,3.40
2022-08-18T04:12:48.822Z,3.53
2022-08-18T04:18:03.055Z,3.50
2022-08-18T04:23:06.862Z,3.28
2022-08-18T04:28:11.091Z,3.35
2022-08-18T04:33:13.981Z,3.38
2022-08-18T04:38:16.693Z,3.15
2022-08-18T04:43:20.913Z,2.65
2022-08-18T04:48:23.681Z,3.03
2022-08-18T04:53:43.918Z,3.50
2022-08-18T04:58:52.205Z,3.45
2022-08-18T05:03:55.954Z,3.40
2022-08-18T05:09:00.289Z,3.00
2022-08-18T05:14:06.616Z,3.90
2022-08-18T05:19:11.808Z,3.15
2022-08-18T05:24:14.566Z,3.60
2022-08-18T05:29:19.567Z,3.40
2022-08-18T05:34:23.912Z,4.10
2022-08-18T05:39:31.230Z,3.65
2022-08-18T05:44:37.006Z,4.05
2022-08-18T05:49:40.158Z,3.50
2022-08-18T05:55:04.434Z,3.83
2022-08-18T06:00:11.052Z,4.32
2022-08-18T06:05:25.386Z,4.18
2022-08-18T06:10:28.639Z,4.38
2022-08-18T06:15:39.484Z,4.32
2022-08-18T06:20:52.618Z,3.92
2022-08-18T06:26:05.338Z,4.38
2022-08-18T06:31:15.545Z,4.50
2022-08-18T06:36:24.006Z,4.55
2022-08-18T06:41:42.215Z,4.50
2022-08-18T06:46:53.849Z,4.78
2022-08-18T06:51:57.152Z,4.00
2022-08-18T06:56:59.955Z,4.28
2022-08-18T07:02:18.700Z,4.28
2022-08-18T07:07:39.509Z,4.18
2022-08-18T07:12:53.528Z,3.90
2022-08-18T07:18:04.969Z,3.72
2022-08-18T07:23:08.559Z,4.38
2022-08-18T07:28:28.682Z,3.67
2022-08-18T07:33:33.068Z,3.92
2022-08-18T07:38:43.282Z,3.22
2022-08-18T07:43:57.250Z,3.38
2022-08-18T07:49:01.878Z,3.78
2022-08-18T07:54:31.204Z,3.63
2022-08-18T07:59:38.866Z,3.92
2022-08-18T08:04:49.874Z,4.00
2022-08-18T08:09:57.932Z,3.70
2022-08-18T08:15:07.249Z,4.30
2022-08-18T08:20:17.955Z,4.28
2022-08-18T08:30:54.531Z,3.90
2022-08-18T08:36:04.692Z,4.18
2022-08-18T08:41:11.892Z,3.70
2022-08-18T08:46:17.841Z,5.10
2022-08-18T08:51:36.027Z,4.82
2022-08-18T08:56:44.368Z,5.05
2022-08-18T09:01:57.202Z,6.07
2022-08-18T09:07:14.222Z,5.78
2022-08-18T09:12:28.378Z,6.22
2022-08-18T09:17:50.886Z,6.38
2022-08-18T09:22:57.636Z,7.43
2022-08-18T09:28:12.301Z,5.70
2022-08-18T09:33:35.116Z,6.55
2022-08-18T09:39:06.853Z,7.07
2022-08-18T09:49:47.789Z,7.22
2022-08-18T09:50:37.283Z,6.80
2022-08-18T09:55:00.987Z,6.35
2022-08-18T10:00:29.202Z,5.82
2022-08-18T10:05:33.278Z,7.45
2022-08-18T10:16:15.069Z,7.88
2022-08-18T10:21:24.414Z,7.75
2022-08-18T10:27:09.004Z,9.10
2022-08-18T10:32:38.010Z,8.75
2022-08-18T10:37:44.228Z,8.63
2022-08-18T10:42:53.450Z,7.75
2022-08-18T10:48:17.357Z,7.65
2022-08-18T10:53:40.173Z,8.65
2022-08-18T10:59:05.390Z,8.18
2022-08-18T11:04:21.428Z,6.80
2022-08-18T11:09:36.915Z,8.00
2022-08-18T11:20:35.062Z,7.22
2022-08-18T11:25:39.864Z,6.82
2022-08-18T11:30:45.418Z,8.35
2022-08-18T11:35:52.397Z,7.80
2022-08-18T11:46:38.777Z,8.55
2022-08-18T11:51:55.609Z,8.25
2022-08-18T11:57:29.630Z,7.72
2022-08-18T12:02:32.468Z,8.52
2022-08-18T12:07:37.385Z,9.00
2022-08-18T12:12:46.425Z,7.40
2022-08-18T12:17:53.890Z,7.78
2022-08-18T12:22:58.296Z,7.18
2022-08-18T12:28:01.126Z,8.05
2022-08-18T12:33:08.143Z,8.00
2022-08-18T12:38:17.805Z,7.78
2022-08-18T12:43:21.344Z,7.05
2022-08-18T12:48:28.300Z,7.90
2022-08-18T12:53:58.160Z,7.43
2022-08-18T12:58:55.474Z,7.55
2022-08-18T13:04:12.534Z,8.20
2022-08-18T13:09:35.285Z,8.43
2022-08-18T13:14:41.184Z,8.38
2022-08-18T13:19:46.363Z,7.63
2022-08-18T13:24:50.783Z,6.82
2022-08-18T13:29:56.155Z,7.03
2022-08-18T13:34:59.511Z,7.28
2022-08-18T13:40:07.944Z,6.88
2022-08-18T13:45:23.309Z,7.05
2022-08-18T13:50:29.912Z,7.40
2022-08-18T13:55:34.340Z,7.18
2022-08-18T14:00:38.003Z,6.72
2022-08-18T14:05:51.258Z,7.22
2022-08-18T14:11:01.665Z,7.65
2022-08-18T14:16:05.097Z,6.90
2022-08-18T14:21:25.583Z,7.05
2022-08-18T14:26:50.546Z,7.03
2022-08-18T14:31:53.558Z,7.18
2022-08-18T14:36:57.638Z,7.68
2022-08-18T14:42:03.032Z,7.35
2022-08-18T14:47:06.379Z,7.57
2022-08-18T14:52:10.555Z,6.80
2022-08-18T14:57:18.618Z,7.50
2022-08-18T15:02:28.642Z,7.07
2022-08-18T15:07:32.825Z,7.57
2022-08-18T15:12:37.297Z,6.22
2022-08-18T15:17:41.343Z,6.65
2022-08-18T15:23:03.082Z,6.78
2022-08-18T15:28:08.352Z,7.70
2022-08-18T15:33:23.624Z,7.20
2022-08-18T15:38:27.626Z,6.47
2022-08-18T15:43:33.846Z,7.15
2022-08-18T15:48:36.655Z,6.18
2022-08-18T15:53:44.465Z,6.82
2022-08-18T15:58:49.372Z,6.18
2022-08-18T16:03:53.384Z,5.80
2022-08-18T16:08:56.329Z,5.50
2022-08-18T16:14:01.004Z,6.53
2022-08-18T16:19:05.132Z,5.72
2022-08-18T16:24:09.006Z,5.78
2022-08-18T16:29:13.056Z,5.47
2022-08-18T16:34:15.759Z,5.90
2022-08-18T16:39:18.563Z,5.35
2022-08-18T16:44:24.878Z,5.07
2022-08-18T16:49:27.754Z,5.50
2022-08-18T16:54:31.065Z,4.88
2022-08-18T17:00:04.227Z,4.43
2022-08-18T17:05:07.537Z,4.80
2022-08-18T17:10:10.487Z,5.30
2022-08-18T17:15:15.405Z,5.80
2022-08-18T17:20:19.215Z,5.25
2022-08-18T17:25:25.760Z,4.95
2022-08-18T17:30:36.803Z,5.28
2022-08-18T17:35:42.260Z,5.15
2022-08-18T17:40:47.949Z,6.13
2022-08-18T17:45:56.202Z,5.38
2022-08-18T17:51:21.044Z,5.90
2022-08-18T17:56:35.671Z,5.25
2022-08-18T18:01:42.608Z,5.13
2022-08-18T18:06:48.217Z,5.18
2022-08-18T18:11:52.430Z,7.55
2022-08-18T18:17:12.768Z,7.95
2022-08-18T18:22:20.839Z,9.15
2022-08-18T18:27:27.776Z,9.40
2022-08-18T18:32:35.241Z,10.50
2022-08-18T18:37:45.199Z,18.70
2022-08-18T18:42:50.582Z,13.65
2022-08-18T18:48:01.610Z,11.18
2022-08-18T18:53:14.110Z,9.10
2022-08-18T18:58:24.398Z,7.78
2022-08-18T19:03:34.635Z,8.45
2022-08-18T19:08:46.118Z,8.65
2022-08-18T19:13:55.117Z,8.23
2022-08-18T19:19:36.127Z,8.13
2022-08-18T19:24:26.282Z,7.53
2022-08-18T19:29:31.959Z,6.28
2022-08-18T19:34:42.445Z,6.40
2022-08-18T19:40:00.814Z,6.82
2022-08-18T19:45:16.625Z,6.70
2022-08-18T19:50:29.698Z,6.45
2022-08-18T19:55:41.551Z,7.65
2022-08-18T20:00:48.668Z,6.70
2022-08-18T20:06:14.161Z,8.90
2022-08-18T20:11:44.601Z,10.10
2022-08-18T20:17:14.470Z,9.25
2022-08-18T20:22:32.630Z,9.75
2022-08-18T20:27:38.937Z,9.13
2022-08-18T20:32:41.750Z,8.73
2022-08-18T20:37:46.116Z,9.60
2022-08-18T20:42:55.928Z,10.07
2022-08-18T20:48:23.766Z,9.57
2022-08-18T20:53:40.225Z,10.23
2022-08-18T20:58:51.405Z,10.57
2022-08-18T21:03:54.252Z,11.13
2022-08-18T21:09:04.031Z,10.70
2022-08-18T21:14:07.859Z,10.25
2022-08-18T21:19:17.984Z,10.00
2022-08-18T21:24:28.913Z,10.30
2022-08-18T21:29:44.222Z,9.23
2022-08-18T21:34:52.345Z,10.15
2022-08-18T21:39:59.346Z,9.85
2022-08-18T21:45:02.507Z,10.80
2022-08-18T21:50:11.379Z,9.88
2022-08-18T21:55:30.157Z,9.10
2022-08-18T22:00:34.905Z,9.80
2022-08-18T22:05:58.710Z,8.88
2022-08-18T22:12:00.887Z,8.70
2022-08-18T22:17:32.810Z,7.80
2022-08-18T22:22:53.438Z,8.30
2022-08-18T22:28:00.389Z,8.13
2022-08-18T22:33:03.156Z,8.93
2022-08-18T22:38:05.935Z,7.65
2022-08-18T22:43:10.382Z,7.45
2022-08-18T22:48:16.494Z,8.00
2022-08-18T22:53:19.421Z,7.78
2022-08-18T22:58:28.245Z,7.15
2022-08-18T23:03:31.365Z,7.90
2022-08-18T23:08:55.188Z,8.85
2022-08-18T23:14:00.954Z,8.88
2022-08-18T23:19:03.690Z,9.38
2022-08-18T23:24:07.149Z,9.35
2022-08-18T23:29:11.663Z,9.80
2022-08-18T23:34:17.315Z,9.82
2022-08-18T23:39:20.215Z,10.68
2022-08-18T23:44:27.810Z,10.10
2022-08-18T23:49:31.595Z,10.20
2022-08-18T23:54:36.030Z,10.60
2022-08-18T23:59:40.069Z,11.23
